Time;durP1;ratioP1;P1;durP2;ratioP2;P2;SDS_P1;SDS_P2;PMS_P1;PMS_P2;Temp;Humidity;BMP_temperature;BMP_pressure;BME280_temperature;BME280_humidity;BME280_pressure;Samples;Min_cycle;Max_cycle;Signal;HPM_P1;HPM_P2
2023/06/18 00:01:48;;;;;;;4.77;3.80;;;17.40;56.20;;;;;;5115514;27;21067;-74
2023/06/18 00:04:15;;;;;;;4.87;3.40;;;17.40;55.90;;;;;;5113707;27;20637;-73
2023/06/18 00:06:43;;;;;;;4.33;3.83;;;17.40;56.10;;;;;;5116847;27;21240;-74
2023/06/18 00:09:10;;;;;;;4.60;4.20;;;17.30;57.00;;;;;;5111673;27;20699;-73
2023/06/18 00:11:37;;;;;;;5.20;4.60;;;17.20;57.50;;;;;;5117704;27;20649;-74
2023/06/18 00:14:03;;;;;;;4.40;4.00;;;17.20;58.10;;;;;;5113282;27;20650;-73
2023/06/18 00:16:30;;;;;;;4.43;3.67;;;17.00;57.90;;;;;;5110073;27;21225;-74
2023/06/18 00:18:57;;;;;;;5.43;4.23;;;17.00;58.30;;;;;;5116419;27;20637;-73
2023/06/18 00:21:24;;;;;;;5.67;5.07;;;16.90;58.10;;;;;;5107010;27;20646;-74
2023/06/18 00:23:52;;;;;;;4.47;4.00;;;16.90;58.50;;;;;;5109497;27;20639;-73
2023/06/18 00:26:19;;;;;;;6.63;3.67;;;17.00;57.60;;;;;;5122185;27;20665;-73
2023/06/18 00:28:46;;;;;;;5.57;4.90;;;17.00;57.40;;;;;;5115469;27;20618;-74
2023/06/18 00:31:13;;;;;;;4.57;4.17;;;16.90;57.50;;;;;;5115072;27;20662;-74
2023/06/18 00:33:40;;;;;;;7.23;4.73;;;16.90;57.70;;;;;;5119016;27;20665;-73
2023/06/18 00:36:08;;;;;;;4.10;3.23;;;16.90;57.80;;;;;;5120471;27;20665;-74
2023/06/18 00:38:36;;;;;;;4.13;3.80;;;16.90;57.40;;;;;;5117186;27;20995;-74
2023/06/18 00:41:05;;;;;;;4.10;3.53;;;16.90;57.50;;;;;;5112781;27;20652;-74
2023/06/18 00:43:31;;;;;;;5.63;4.43;;;16.90;57.70;;;;;;5114126;27;20628;-74
2023/06/18 00:46:00;;;;;;;4.53;4.10;;;16.80;58.10;;;;;;5116362;27;20732;-74
2023/06/18 00:48:27;;;;;;;4.57;4.17;;;16.80;58.10;;;;;;5122610;27;21065;-73
2023/06/18 00:50:54;;;;;;;4.23;3.53;;;16.80;57.80;;;;;;5107584;27;20750;-73
2023/06/18 00:53:21;;;;;;;4.53;4.13;;;16.80;57.30;;;;;;5122052;27;20632;-74
2023/06/18 00:55:49;;;;;;;4.33;3.93;;;16.80;57.40;;;;;;5114485;27;20661;-74
2023/06/18 00:58:18;;;;;;;4.17;3.77;;;16.90;57.40;;;;;;5112015;27;20614;-74
2023/06/18 01:00:45;;;;;;;6.40;4.27;;;16.90;57.00;;;;;;5118421;27;20657;-74
2023/06/18 01:03:17;;;;;;;5.10;3.97;;;16.90;56.70;;;;;;5112126;27;21170;-74
2023/06/18 01:05:46;;;;;;;4.83;4.37;;;16.90;56.50;;;;;;5117635;27;21116;-73
2023/06/18 01:08:13;;;;;;;7.50;4.87;;;17.00;56.30;;;;;;5111518;27;21188;-73
2023/06/18 01:10:41;;;;;;;6.50;4.60;;;17.00;56.20;;;;;;5111727;27;21006;-74
2023/06/18 01:13:15;;;;;;;5.47;4.90;;;16.90;56.40;;;;;;5102341;27;20632;-74
2023/06/18 01:15:43;;;;;;;5.73;4.00;;;16.90;56.20;;;;;;5110293;27;20732;-74
2023/06/18 01:18:12;;;;;;;4.30;4.00;;;16.90;56.20;;;;;;5108774;27;21005;-73
2023/06/18 01:20:41;;;;;;;5.17;4.70;;;17.00;56.30;;;;;;5114398;27;21236;-73
2023/06/18 01:23:17;;;;;;;5.90;3.90;;;17.00;56.30;;;;;;5112361;27;20651;-74
2023/06/18 01:25:45;;;;;;;4.03;3.63;;;17.00;56.00;;;;;;5120208;27;21295;-73
2023/06/18 01:28:15;;;;;;;5.43;4.47;;;17.00;56.30;;;;;;5099970;27;20979;-74
2023/06/18 01:30:44;;;;;;;5.87;4.60;;;16.90;56.00;;;;;;5112486;27;20748;-74
2023/06/18 01:33:12;;;;;;;4.43;4.03;;;16.90;55.90;;;;;;5119307;27;20989;-74
2023/06/18 01:35:39;;;;;;;5.03;4.40;;;17.00;56.20;;;;;;5123127;27;20649;-74
2023/06/18 01:38:23;;;;;;;5.27;4.43;;;16.90;56.10;;;;;;5124133;27;20634;-73
2023/06/18 01:40:57;;;;;;;4.07;3.67;;;16.90;56.10;;;;;;5120405;27;20773;-74
2023/06/18 01:43:29;;;;;;;5.40;4.33;;;16.90;56.20;;;;;;5110293;27;20683;-74
2023/06/18 01:46:03;;;;;;;5.60;4.40;;;16.90;56.20;;;;;;5111535;27;20753;-73
2023/06/18 01:48:35;;;;;;;4.90;4.50;;;16.80;56.50;;;;;;5121891;27;21190;-75
2023/06/18 01:51:04;;;;;;;5.20;4.70;;;16.60;56.30;;;;;;5113896;27;20664;-74
2023/06/18 01:53:33;;;;;;;5.07;3.63;;;16.60;56.80;;;;;;5117809;27;20676;-73
2023/06/18 01:56:01;;;;;;;6.43;4.20;;;16.60;56.60;;;;;;5120237;27;20662;-73
2023/06/18 01:58:31;;;;;;;4.83;4.00;;;16.50;56.80;;;;;;5096871;27;20663;-74
2023/06/18 02:00:59;;;;;;;5.67;3.97;;;16.50;56.80;;;;;;5105877;27;20683;-74
2023/06/18 02:03:26;;;;;;;5.30;4.80;;;16.60;57.70;;;;;;5112917;27;21001;-74
2023/06/18 02:05:53;;;;;;;5.33;4.83;;;16.50;57.80;;;;;;5116419;27;20661;-74
2023/06/18 02:08:21;;;;;;;3.97;3.67;;;16.50;57.90;;;;;;5107443;27;20988;-74
2023/06/18 02:10:48;;;;;;;5.60;4.47;;;16.40;57.30;;;;;;5100638;27;21243;-74
2023/06/18 02:13:15;;;;;;;6.03;4.63;;;16.40;57.60;;;;;;5119152;27;21198;-74
2023/06/18 02:15:43;;;;;;;4.53;4.13;;;16.30;58.40;;;;;;5108985;27;21360;-73
2023/06/18 02:18:11;;;;;;;5.20;4.23;;;16.20;59.10;;;;;;5107629;27;20628;-74
2023/06/18 02:20:40;;;;;;;4.90;4.50;;;16.00;59.20;;;;;;5104850;27;20740;-74
2023/06/18 02:23:08;;;;;;;5.20;4.70;;;16.00;59.10;;;;;;5118516;27;20687;-74
2023/06/18 02:25:36;;;;;;;8.13;4.83;;;15.90;59.50;;;;;;5116124;27;20661;-73
2023/06/18 02:28:06;;;;;;;4.43;4.03;;;15.90;59.50;;;;;;5116256;27;20758;-74
2023/06/18 02:30:35;;;;;;;7.07;4.50;;;15.80;59.70;;;;;;5120093;27;20680;-74
2023/06/18 02:33:06;;;;;;;4.17;3.87;;;15.80;59.20;;;;;;5116553;27;20622;-74
2023/06/18 02:35:34;;;;;;;4.63;4.20;;;15.70;59.20;;;;;;5111455;27;20648;-74
2023/06/18 02:38:01;;;;;;;4.90;4.33;;;15.70;60.20;;;;;;5112612;27;20649;-74
2023/06/18 02:40:28;;;;;;;5.07;4.20;;;15.70;61.40;;;;;;5113577;27;20695;-73
2023/06/18 02:42:56;;;;;;;4.90;4.33;;;15.60;61.90;;;;;;5117525;27;20631;-73
2023/06/18 02:45:25;;;;;;;5.00;4.50;;;15.50;62.20;;;;;;5113170;27;21071;-74
2023/06/18 02:47:52;;;;;;;6.40;4.03;;;15.60;61.80;;;;;;5119388;27;20672;-73
2023/06/18 02:50:20;;;;;;;5.27;4.77;;;15.60;60.90;;;;;;5117971;27;20617;-73
2023/06/18 02:52:48;;;;;;;3.67;3.33;;;15.70;61.00;;;;;;5112658;27;21268;-73
2023/06/18 02:55:15;;;;;;;6.97;5.70;;;15.80;60.90;;;;;;5115936;27;21204;-74
2023/06/18 02:57:43;;;;;;;4.73;4.33;;;15.80;61.00;;;;;;5114972;28;20667;-74
2023/06/18 03:00:12;;;;;;;4.97;3.80;;;15.80;60.60;;;;;;5109926;28;20966;-73
2023/06/18 03:02:41;;;;;;;6.97;5.30;;;15.80;60.90;;;;;;5117303;27;20757;-74
2023/06/18 03:05:09;;;;;;;4.60;4.20;;;15.70;61.20;;;;;;5108898;28;20624;-74
2023/06/18 03:07:37;;;;;;;4.70;3.93;;;15.80;61.40;;;;;;5111640;27;20906;-74
2023/06/18 03:10:08;;;;;;;6.83;5.30;;;15.70;61.60;;;;;;5098014;28;20647;-74
2023/06/18 03:12:36;;;;;;;7.63;5.10;;;15.60;61.40;;;;;;5115783;27;20621;-74
2023/06/18 03:15:06;;;;;;;6.70;3.83;;;15.40;60.90;;;;;;5107644;27;20613;-74
2023/06/18 03:17:33;;;;;;;5.00;4.60;;;15.40;61.30;;;;;;5110523;27;20625;-74
2023/06/18 03:20:00;;;;;;;5.43;4.30;;;15.50;62.10;;;;;;5118713;27;21304;-74
2023/06/18 03:22:28;;;;;;;5.40;4.87;;;15.60;62.60;;;;;;5122845;27;21288;-74
2023/06/18 03:24:56;;;;;;;6.57;6.00;;;15.50;62.10;;;;;;5118468;27;20635;-74
2023/06/18 03:27:25;;;;;;;4.60;4.10;;;15.40;61.70;;;;;;5115721;27;21099;-74
2023/06/18 03:29:55;;;;;;;4.73;4.17;;;15.30;63.00;;;;;;5115889;27;20622;-74
2023/06/18 03:32:24;;;;;;;4.20;3.63;;;15.10;63.20;;;;;;5111589;27;20817;-74
2023/06/18 03:34:52;;;;;;;5.17;4.17;;;15.10;64.40;;;;;;5114436;27;21230;-74
2023/06/18 03:37:21;;;;;;;5.57;4.50;;;15.10;64.90;;;;;;5121814;27;21301;-74
2023/06/18 03:39:48;;;;;;;4.60;4.20;;;15.10;64.20;;;;;;5114692;27;21252;-74
2023/06/18 03:42:16;;;;;;;3.80;3.50;;;15.30;63.80;;;;;;5119804;27;20641;-74
2023/06/18 03:44:45;;;;;;;5.77;5.00;;;15.40;62.40;;;;;;5124382;27;20638;-74
2023/06/18 03:47:14;;;;;;;6.57;4.47;;;15.50;61.50;;;;;;5117918;27;20755;-74
2023/06/18 03:49:42;;;;;;;4.70;4.07;;;15.50;63.70;;;;;;5115815;27;20631;-74
2023/06/18 03:52:10;;;;;;;5.83;4.33;;;15.50;63.60;;;;;;5116782;27;20709;-74
2023/06/18 03:54:38;;;;;;;5.67;5.00;;;15.60;63.80;;;;;;5116488;27;20628;-74
2023/06/18 03:57:05;;;;;;;4.80;4.00;;;15.60;62.90;;;;;;5110575;27;20675;-74
2023/06/18 03:59:33;;;;;;;5.63;4.77;;;15.70;62.60;;;;;;5111140;27;21659;-74
2023/06/18 04:02:01;;;;;;;5.40;4.43;;;15.70;62.70;;;;;;5120479;27;21092;-74
2023/06/18 04:04:28;;;;;;;4.50;4.10;;;15.90;61.60;;;;;;5118536;27;20621;-74
2023/06/18 04:06:54;;;;;;;4.27;3.97;;;16.00;61.00;;;;;;5108812;27;20675;-74
2023/06/18 04:09:21;;;;;;;5.00;4.20;;;16.00;62.20;;;;;;5106054;27;21320;-74
2023/06/18 04:11:49;;;;;;;5.93;3.30;;;16.00;61.60;;;;;;5120111;27;20741;-73
2023/06/18 04:14:16;;;;;;;5.40;4.47;;;16.00;62.30;;;;;;5122090;27;20623;-74
2023/06/18 04:16:43;;;;;;;5.27;4.77;;;16.00;62.10;;;;;;5115990;27;20642;-74
2023/06/18 04:19:11;;;;;;;5.30;4.77;;;16.20;62.10;;;;;;5112031;27;20959;-74
2023/06/18 04:21:38;;;;;;;4.90;4.20;;;16.10;62.80;;;;;;5107244;27;20661;-74
2023/06/18 04:24:06;;;;;;;3.90;3.43;;;16.10;62.00;;;;;;5112740;27;20626;-74
2023/06/18 04:26:32;;;;;;;5.10;4.47;;;16.00;62.90;;;;;;5110130;27;20654;-74
2023/06/18 04:28:59;;;;;;;4.37;3.30;;;16.10;63.50;;;;;;5117184;27;21380;-74
2023/06/18 04:31:26;;;;;;;4.53;3.77;;;16.10;63.60;;;;;;5116223;27;20648;-74
2023/06/18 04:33:53;;;;;;;5.17;4.20;;;16.20;63.00;;;;;;5119706;27;20954;-74
2023/06/18 04:36:21;;;;;;;4.40;3.90;;;16.30;62.80;;;;;;5107917;27;20660;-74
2023/06/18 04:38:48;;;;;;;5.80;5.13;;;16.30;63.80;;;;;;5121974;27;20678;-74
2023/06/18 04:41:15;;;;;;;6.23;4.10;;;16.30;63.30;;;;;;5101754;27;20761;-74
2023/06/18 04:43:41;;;;;;;4.80;4.27;;;16.40;63.60;;;;;;5121705;27;20634;-74
2023/06/18 04:46:08;;;;;;;4.47;3.67;;;16.50;64.20;;;;;;5113337;27;20657;-74
2023/06/18 04:48:35;;;;;;;7.10;5.27;;;16.50;63.90;;;;;;5113041;27;20662;-73
2023/06/18 04:51:02;;;;;;;4.90;3.70;;;16.70;64.60;;;;;;5106464;27;20662;-74
2023/06/18 04:53:30;;;;;;;5.10;4.47;;;16.70;64.10;;;;;;5118387;27;21191;-74
2023/06/18 04:55:57;;;;;;;4.97;4.47;;;16.80;64.30;;;;;;5119523;27;20843;-74
2023/06/18 04:58:27;;;;;;;5.57;4.80;;;17.10;61.50;;;;;;5120066;27;20634;-74
2023/06/18 05:00:55;;;;;;;7.07;4.40;;;17.40;59.90;;;;;;5108332;27;20656;-74
2023/06/18 05:03:23;;;;;;;5.10;4.43;;;17.50;59.10;;;;;;5116064;27;20621;-74
2023/06/18 05:05:52;;;;;;;6.40;4.83;;;17.50;59.20;;;;;;5117520;27;20660;-74
2023/06/18 05:08:21;;;;;;;4.70;3.80;;;17.30;60.70;;;;;;5113929;27;20670;-74
2023/06/18 05:10:49;;;;;;;4.87;4.00;;;17.20;60.20;;;;;;5094600;27;20754;-74
2023/06/18 05:13:16;;;;;;;4.40;3.80;;;17.10;61.50;;;;;;5124090;27;20622;-74
2023/06/18 05:15:43;;;;;;;5.23;4.57;;;17.00;62.50;;;;;;5113312;27;20751;-74
2023/06/18 05:18:10;;;;;;;4.70;3.97;;;17.00;63.60;;;;;;5105409;27;20615;-74
2023/06/18 05:20:36;;;;;;;5.90;4.83;;;17.20;63.80;;;;;;5112093;27;21313;-74
2023/06/18 05:23:03;;;;;;;3.97;3.60;;;17.30;60.80;;;;;;5114728;27;20617;-73
2023/06/18 05:25:30;;;;;;;4.93;4.43;;;17.50;60.00;;;;;;5117576;27;20765;-73
2023/06/18 05:27:58;;;;;;;6.27;4.70;;;17.70;59.60;;;;;;5115935;27;21035;-73
2023/06/18 05:30:25;;;;;;;4.73;3.47;;;17.80;60.00;;;;;;5114262;27;20668;-73
2023/06/18 05:32:52;;;;;;;4.10;3.70;;;17.80;59.20;;;;;;5121346;27;20619;-73
2023/06/18 05:35:18;;;;;;;5.40;3.90;;;17.80;59.50;;;;;;5118138;27;20718;-74
2023/06/18 05:37:45;;;;;;;5.37;3.93;;;17.90;59.70;;;;;;5125102;27;20646;-74
2023/06/18 05:40:12;;;;;;;4.37;3.97;;;18.00;59.70;;;;;;5115061;27;21193;-74
2023/06/18 05:42:39;;;;;;;4.43;3.77;;;18.00;59.70;;;;;;5115109;27;20762;-74
2023/06/18 05:45:08;;;;;;;4.30;3.97;;;18.00;57.70;;;;;;5117753;27;20718;-74
2023/06/18 05:47:35;;;;;;;5.40;4.20;;;18.10;56.80;;;;;;5116526;27;20669;-74
2023/06/18 05:50:02;;;;;;;6.10;4.40;;;18.20;56.60;;;;;;5110082;27;20669;-74
2023/06/18 05:52:29;;;;;;;4.27;3.97;;;18.20;56.70;;;;;;5101432;27;20632;-74
2023/06/18 05:54:56;;;;;;;5.53;4.23;;;18.30;56.40;;;;;;5108784;27;20685;-73
2023/06/18 05:57:22;;;;;;;4.60;3.90;;;18.40;57.30;;;;;;5105291;27;20656;-74
2023/06/18 05:59:49;;;;;;;3.97;3.57;;;18.60;56.80;;;;;;5107411;27;21226;-73
2023/06/18 06:02:17;;;;;;;4.83;4.23;;;18.70;56.80;;;;;;5113899;27;20657;-74
2023/06/18 06:04:44;;;;;;;4.87;4.40;;;18.80;55.50;;;;;;5117779;27;21291;-74
2023/06/18 06:07:14;;;;;;;4.67;4.27;;;18.90;55.20;;;;;;5115390;27;20655;-73
2023/06/18 06:09:41;;;;;;;4.87;4.43;;;19.10;55.10;;;;;;5104910;27;20962;-74
2023/06/18 06:12:11;;;;;;;5.17;4.50;;;19.20;55.50;;;;;;5115725;27;20639;-74
2023/06/18 06:14:38;;;;;;;6.30;4.63;;;19.40;55.20;;;;;;5114561;27;20643;-74
2023/06/18 06:17:05;;;;;;;4.87;4.37;;;19.50;54.90;;;;;;5102896;27;20654;-73
2023/06/18 06:19:33;;;;;;;4.87;3.77;;;19.50;55.00;;;;;;5111263;27;20712;-73
2023/06/18 06:22:00;;;;;;;4.90;4.10;;;19.60;55.00;;;;;;5107412;27;20660;-74
2023/06/18 06:24:26;;;;;;;4.73;3.50;;;19.70;54.10;;;;;;5112314;27;20615;-73
2023/06/18 06:26:53;;;;;;;5.33;4.23;;;19.80;54.00;;;;;;5113468;27;21246;-73
2023/06/18 06:29:20;;;;;;;5.70;5.20;;;19.90;54.00;;;;;;5114665;27;20678;-73
2023/06/18 06:31:47;;;;;;;5.90;5.30;;;20.00;53.60;;;;;;5114974;27;20699;-73
2023/06/18 06:34:14;;;;;;;4.47;3.80;;;20.10;53.20;;;;;;5119225;27;20655;-74
2023/06/18 06:36:43;;;;;;;9.13;4.23;;;20.20;53.20;;;;;;5117576;27;21178;-74
2023/06/18 06:39:10;;;;;;;5.20;4.53;;;20.30;52.90;;;;;;5106183;27;20616;-74
2023/06/18 06:41:36;;;;;;;4.33;3.93;;;20.50;52.60;;;;;;5123683;27;20643;-74
2023/06/18 06:44:03;;;;;;;7.47;4.87;;;20.50;52.40;;;;;;5114481;27;20623;-74
2023/06/18 06:46:30;;;;;;;4.70;4.30;;;20.60;52.40;;;;;;5117878;27;20661;-75
2023/06/18 06:48:57;;;;;;;6.47;4.80;;;20.70;52.50;;;;;;5114374;27;20678;-75
2023/06/18 06:51:24;;;;;;;4.20;3.50;;;20.80;52.60;;;;;;5109493;27;20655;-75
2023/06/18 06:53:52;;;;;;;4.67;4.23;;;20.90;52.70;;;;;;5114364;27;21176;-74
2023/06/18 06:56:19;;;;;;;4.47;4.07;;;21.00;52.70;;;;;;5112466;27;20649;-75
2023/06/18 06:58:45;;;;;;;5.60;5.07;;;21.00;52.30;;;;;;5108003;27;20632;-75
2023/06/18 07:01:12;;;;;;;5.50;4.13;;;21.10;52.60;;;;;;5111186;27;20643;-76
2023/06/18 07:03:39;;;;;;;6.37;4.70;;;21.20;52.70;;;;;;5110377;27;20619;-74
2023/06/18 07:06:07;;;;;;;5.57;4.70;;;21.50;52.30;;;;;;5109317;27;21067;-74
2023/06/18 07:08:33;;;;;;;4.70;4.33;;;21.60;52.90;;;;;;5106018;28;20667;-74
2023/06/18 07:11:02;;;;;;;5.77;5.17;;;21.60;52.40;;;;;;5101380;28;20762;-74
2023/06/18 07:13:28;;;;;;;4.30;3.90;;;21.70;53.00;;;;;;5112127;28;20651;-74
2023/06/18 07:15:55;;;;;;;6.43;4.47;;;21.80;52.20;;;;;;5109920;28;20663;-74
2023/06/18 07:18:22;;;;;;;5.10;4.63;;;21.90;51.70;;;;;;5110105;28;20626;-74
2023/06/18 07:20:49;;;;;;;5.50;4.60;;;21.70;52.80;;;;;;5105688;28;20658;-74
2023/06/18 07:23:16;;;;;;;6.23;5.53;;;21.90;52.30;;;;;;5113706;28;20676;-74
2023/06/18 07:25:43;;;;;;;5.40;4.47;;;22.10;53.00;;;;;;5118132;28;20658;-74
2023/06/18 07:28:11;;;;;;;7.60;4.40;;;22.10;52.70;;;;;;5111687;27;20668;-74
2023/06/18 07:30:38;;;;;;;4.90;4.50;;;22.20;51.30;;;;;;5117655;28;20661;-74
2023/06/18 07:33:04;;;;;;;4.17;3.87;;;22.40;50.30;;;;;;5120504;28;20631;-74
2023/06/18 07:35:31;;;;;;;5.30;4.80;;;22.40;49.60;;;;;;5109422;28;20661;-75
2023/06/18 07:37:58;;;;;;;5.30;4.80;;;22.60;49.70;;;;;;5112465;28;20628;-74
2023/06/18 07:40:25;;;;;;;5.70;4.80;;;22.80;49.90;;;;;;5118826;28;20659;-74
2023/06/18 07:42:52;;;;;;;5.10;4.70;;;22.90;48.40;;;;;;5109002;27;20676;-75
2023/06/18 07:45:20;;;;;;;4.90;4.33;;;23.10;49.10;;;;;;5117089;28;21046;-74
2023/06/18 07:47:47;;;;;;;5.20;4.70;;;23.20;50.00;;;;;;5115632;28;20631;-74
2023/06/18 07:50:14;;;;;;;5.60;5.10;;;23.20;48.90;;;;;;5115915;27;20628;-74
2023/06/18 07:52:41;;;;;;;4.60;3.87;;;23.40;48.80;;;;;;5113029;28;21055;-74
2023/06/18 07:55:09;;;;;;;4.40;3.70;;;23.50;48.90;;;;;;5101727;28;20630;-74
2023/06/18 07:57:36;;;;;;;5.63;4.60;;;23.70;47.50;;;;;;5110918;27;20674;-75
2023/06/18 08:00:03;;;;;;;4.80;3.97;;;23.70;47.80;;;;;;5104920;28;20619;-75
2023/06/18 08:02:32;;;;;;;5.50;4.57;;;23.80;47.60;;;;;;5111711;27;20626;-74
2023/06/18 08:04:59;;;;;;;4.23;3.87;;;23.90;47.20;;;;;;5121628;27;20993;-74
2023/06/18 08:07:27;;;;;;;5.30;4.77;;;24.00;47.50;;;;;;5112069;27;21293;-75
2023/06/18 08:09:53;;;;;;;4.83;4.37;;;24.10;47.70;;;;;;5106396;27;20695;-74
2023/06/18 08:12:20;;;;;;;5.00;4.60;;;24.20;48.00;;;;;;5123470;27;20642;-74
2023/06/18 08:14:48;;;;;;;6.70;5.00;;;24.30;47.90;;;;;;5123118;27;20730;-74
2023/06/18 08:17:17;;;;;;;4.53;4.13;;;24.40;47.30;;;;;;5102701;27;20657;-74
2023/06/18 08:19:46;;;;;;;4.60;3.97;;;24.70;47.00;;;;;;5115587;27;21055;-75
2023/06/18 08:22:13;;;;;;;4.77;4.30;;;24.80;46.80;;;;;;5105974;27;20714;-74
2023/06/18 08:24:39;;;;;;;6.30;5.50;;;24.90;46.50;;;;;;5115479;27;21200;-74
2023/06/18 08:27:07;;;;;;;3.90;3.60;;;25.00;45.30;;;;;;5118457;27;20779;-75
2023/06/18 08:29:34;;;;;;;6.50;5.47;;;25.10;45.30;;;;;;5113779;27;20985;-74
2023/06/18 08:32:04;;;;;;;5.87;5.33;;;25.20;45.90;;;;;;5124353;27;20680;-75
2023/06/18 08:34:31;;;;;;;3.70;3.40;;;25.20;46.00;;;;;;5126193;27;20631;-74
2023/06/18 08:37:00;;;;;;;5.00;4.47;;;25.30;44.70;;;;;;5110032;27;21333;-74
2023/06/18 08:39:27;;;;;;;4.77;4.37;;;25.50;45.00;;;;;;5123605;27;20627;-74
2023/06/18 08:41:54;;;;;;;5.37;4.87;;;25.70;44.60;;;;;;5115021;27;20643;-74
2023/06/18 08:44:23;;;;;;;5.33;4.80;;;25.90;43.60;;;;;;5108887;27;20619;-75
2023/06/18 08:46:52;;;;;;;6.40;4.57;;;25.90;43.90;;;;;;5112536;27;20692;-74
2023/06/18 08:49:21;;;;;;;4.60;4.20;;;25.90;44.10;;;;;;5122831;27;20658;-74
2023/06/18 08:51:52;;;;;;;4.70;3.47;;;26.10;44.00;;;;;;5111878;27;20755;-74
2023/06/18 08:54:22;;;;;;;4.83;4.33;;;26.10;42.70;;;;;;5120430;27;21008;-74
2023/06/18 08:56:52;;;;;;;4.57;4.17;;;26.30;42.80;;;;;;5104573;27;20659;-74
2023/06/18 08:59:20;;;;;;;4.73;4.23;;;26.50;42.20;;;;;;5108780;27;20723;-75
2023/06/18 09:01:49;;;;;;;4.90;4.10;;;26.60;41.50;;;;;;5114374;27;20760;-74
2023/06/18 09:04:17;;;;;;;6.03;3.53;;;26.60;41.10;;;;;;5118678;27;20631;-74
2023/06/18 09:06:45;;;;;;;4.27;3.87;;;26.70;42.80;;;;;;5119681;27;20656;-74
2023/06/18 09:09:12;;;;;;;7.17;4.23;;;26.80;41.30;;;;;;5098353;27;20739;-74
2023/06/18 09:11:40;;;;;;;3.97;3.60;;;26.80;40.50;;;;;;5115114;27;20668;-74
2023/06/18 09:14:07;;;;;;;4.80;4.30;;;26.90;41.00;;;;;;5118372;27;20625;-75
2023/06/18 09:16:34;;;;;;;4.50;4.10;;;27.00;41.90;;;;;;5107394;27;20703;-74
2023/06/18 09:19:01;;;;;;;4.43;4.03;;;27.10;41.00;;;;;;5117267;27;20706;-74
2023/06/18 09:21:38;;;;;;;6.67;4.47;;;27.30;41.60;;;;;;5117369;27;20651;-74
2023/06/18 09:24:07;;;;;;;4.80;4.10;;;27.30;40.90;;;;;;5126356;27;20648;-75
2023/06/18 09:26:34;;;;;;;4.80;4.40;;;27.30;39.40;;;;;;5111056;27;20736;-74
2023/06/18 09:29:05;;;;;;;4.73;4.33;;;27.30;39.50;;;;;;5116441;27;20743;-74
2023/06/18 09:31:32;;;;;;;5.33;4.47;;;27.50;40.80;;;;;;5111136;27;20672;-75
2023/06/18 09:33:59;;;;;;;4.13;3.60;;;27.60;40.30;;;;;;5123688;27;20626;-75
2023/06/18 09:36:26;;;;;;;4.50;4.10;;;27.60;41.20;;;;;;5109316;27;20652;-74
2023/06/18 09:38:54;;;;;;;5.87;3.80;;;27.60;39.60;;;;;;5119720;27;20639;-74
2023/06/18 09:41:21;;;;;;;6.60;5.03;;;27.90;38.90;;;;;;5116967;27;21101;-74
2023/06/18 09:43:50;;;;;;;4.23;3.90;;;28.00;38.60;;;;;;5116308;27;20630;-74
2023/06/18 09:46:22;;;;;;;3.90;3.50;;;28.10;38.70;;;;;;5115856;27;20704;-74
2023/06/18 09:48:49;;;;;;;4.73;4.30;;;28.10;38.00;;;;;;5119975;27;20694;-74
2023/06/18 09:51:17;;;;;;;4.00;3.70;;;28.30;38.40;;;;;;5116851;27;20655;-74
2023/06/18 09:53:44;;;;;;;5.20;4.70;;;28.30;38.90;;;;;;5102710;27;21204;-74
2023/06/18 09:56:12;;;;;;;3.60;3.30;;;28.30;39.30;;;;;;5109231;27;21049;-74
2023/06/18 09:58:41;;;;;;;5.00;4.30;;;28.50;38.20;;;;;;5117066;27;20627;-74
2023/06/18 10:01:09;;;;;;;4.97;4.57;;;28.60;38.20;;;;;;5117470;27;20641;-74
2023/06/18 10:03:37;;;;;;;5.23;4.57;;;28.70;38.00;;;;;;5116741;27;20636;-74
2023/06/18 10:06:12;;;;;;;4.70;3.93;;;29.00;37.60;;;;;;5120390;27;20985;-74
2023/06/18 10:08:41;;;;;;;4.80;4.37;;;28.90;37.30;;;;;;5108044;27;20665;-73
2023/06/18 10:11:10;;;;;;;4.27;3.87;;;29.10;37.10;;;;;;5103593;27;21229;-74
2023/06/18 10:13:42;;;;;;;5.00;4.27;;;29.20;37.10;;;;;;5118047;27;20626;-73
2023/06/18 10:16:10;;;;;;;6.00;5.43;;;29.30;36.90;;;;;;5099871;27;20664;-74
2023/06/18 10:18:40;;;;;;;3.73;3.43;;;29.20;38.20;;;;;;5116050;27;21198;-74
2023/06/18 10:21:07;;;;;;;4.50;4.10;;;29.00;37.70;;;;;;5117750;27;20651;-74
2023/06/18 10:23:35;;;;;;;4.57;4.17;;;29.00;37.40;;;;;;5120258;27;20717;-74
2023/06/18 10:26:02;;;;;;;4.87;4.37;;;29.10;37.20;;;;;;5113387;27;20694;-74
2023/06/18 10:28:31;;;;;;;4.17;3.87;;;29.20;37.30;;;;;;5108261;27;20652;-74
2023/06/18 10:30:58;;;;;;;3.80;3.43;;;29.20;36.80;;;;;;5115094;27;20770;-74
2023/06/18 10:33:25;;;;;;;4.50;4.10;;;29.30;36.90;;;;;;5116391;27;20713;-73
2023/06/18 10:35:54;;;;;;;4.83;4.33;;;29.50;37.60;;;;;;5114999;27;21300;-73
2023/06/18 10:38:21;;;;;;;5.20;4.70;;;29.70;39.20;;;;;;5118323;27;20631;-74
2023/06/18 10:40:48;;;;;;;4.93;4.53;;;29.70;38.70;;;;;;5119871;27;20665;-76
2023/06/18 10:43:15;;;;;;;4.40;4.07;;;29.80;38.60;;;;;;5111898;27;20682;-79
2023/06/18 10:46:08;;;;;;;4.20;3.87;;;30.10;37.60;;;;;;5113607;27;20734;-77
2023/06/18 10:48:35;;;;;;;4.70;4.30;;;30.40;36.50;;;;;;5119570;27;20615;-79
2023/06/18 10:51:14;;;;;;;3.77;3.57;;;30.40;35.00;;;;;;5112591;27;21248;-77
2023/06/18 10:53:42;;;;;;;4.30;4.00;;;30.20;35.40;;;;;;5119020;27;20614;-88
2023/06/18 10:56:09;;;;;;;4.33;3.93;;;30.30;35.10;;;;;;5112449;27;20654;-78
2023/06/18 10:58:37;;;;;;;3.80;3.50;;;30.50;35.20;;;;;;5114616;27;20633;-78
2023/06/18 11:01:05;;;;;;;4.43;4.03;;;30.70;36.50;;;;;;5105704;27;20654;-81
2023/06/18 11:03:35;;;;;;;4.73;4.27;;;30.60;35.40;;;;;;5113857;27;20622;-80
2023/06/18 11:06:04;;;;;;;4.10;3.80;;;30.70;34.70;;;;;;5104554;27;20635;-78
2023/06/18 11:08:34;;;;;;;4.27;3.87;;;30.80;34.20;;;;;;5118332;27;20634;-83
2023/06/18 11:11:06;;;;;;;4.50;4.10;;;30.80;34.40;;;;;;5102894;28;20735;-83
2023/06/18 11:13:37;;;;;;;3.63;3.30;;;31.00;34.90;;;;;;5120542;28;20716;-83
2023/06/18 11:16:13;;;;;;;4.37;4.00;;;31.00;34.50;;;;;;5105890;27;20757;-80
2023/06/18 11:18:41;;;;;;;3.90;3.60;;;31.20;33.90;;;;;;5121878;27;20678;-74
2023/06/18 11:21:14;;;;;;;7.22;6.57;;;31.30;35.00;;;;;;5111659;28;20759;-73
2023/06/18 11:23:43;;;;;;;4.10;3.80;;;31.50;36.40;;;;;;5112051;28;20239;-73
2023/06/18 11:26:14;;;;;;;5.27;3.90;;;31.90;33.90;;;;;;5112738;28;20755;-74
2023/06/18 11:28:41;;;;;;;4.53;4.13;;;32.10;35.10;;;;;;5119465;28;20627;-72
2023/06/18 11:31:08;;;;;;;5.37;3.90;;;32.40;35.50;;;;;;5107239;28;21040;-73
2023/06/18 11:33:35;;;;;;;4.23;3.93;;;32.60;34.20;;;;;;5104907;28;20632;-73
2023/06/18 11:36:10;;;;;;;4.03;3.63;;;33.00;32.30;;;;;;5115063;28;20823;-73
2023/06/18 11:38:37;;;;;;;4.63;4.23;;;33.20;32.40;;;;;;5109145;27;20624;-71
2023/06/18 11:41:05;;;;;;;4.63;4.23;;;33.20;32.20;;;;;;5109728;27;20664;-71
2023/06/18 11:43:46;;;;;;;3.87;3.57;;;33.50;33.30;;;;;;5117025;27;21194;-71
2023/06/18 11:46:27;;;;;;;3.57;3.27;;;33.80;32.20;;;;;;5116611;27;21223;-72
2023/06/18 11:48:54;;;;;;;4.13;3.83;;;33.90;31.80;;;;;;5122416;27;20985;-72
2023/06/18 11:51:21;;;;;;;5.10;4.50;;;33.80;31.50;;;;;;5120633;27;20655;-71
2023/06/18 11:53:48;;;;;;;4.37;3.97;;;33.40;32.00;;;;;;5119198;27;20667;-71
2023/06/18 11:56:16;;;;;;;4.23;3.90;;;33.80;33.20;;;;;;5114114;27;20661;-73
2023/06/18 11:58:43;;;;;;;3.83;3.53;;;33.80;33.40;;;;;;5117656;27;21550;-71
2023/06/18 12:01:11;;;;;;;3.87;3.57;;;34.10;33.00;;;;;;5110494;27;20743;-72
2023/06/18 12:03:37;;;;;;;4.03;3.67;;;35.10;32.60;;;;;;5120116;27;20732;-72
2023/06/18 12:06:13;;;;;;;4.50;4.10;;;35.00;30.40;;;;;;5116615;27;21140;-71
2023/06/18 12:08:44;;;;;;;5.50;5.10;;;34.50;31.30;;;;;;5116077;27;21163;-71
2023/06/18 12:11:27;;;;;;;4.33;4.00;;;35.80;30.90;;;;;;5106019;27;20673;-72
2023/06/18 12:13:58;;;;;;;3.70;3.40;;;37.40;29.60;;;;;;5117281;27;21176;-72
2023/06/18 12:16:29;;;;;;;4.17;3.90;;;37.80;29.40;;;;;;5097947;27;20220;-72
2023/06/18 12:19:01;;;;;;;3.63;3.42;;;38.20;29.40;;;;;;5107209;27;20206;-72
2023/06/18 12:21:28;;;;;;;3.13;2.93;;;37.20;28.50;;;;;;5119709;27;20221;-72
2023/06/18 12:23:57;;;;;;;3.50;3.20;;;37.50;29.00;;;;;;5120884;27;20311;-72
2023/06/18 12:26:25;;;;;;;3.88;3.58;;;38.10;29.30;;;;;;5117059;27;20702;-71
2023/06/18 12:28:53;;;;;;;4.43;4.07;;;38.00;29.60;;;;;;5118749;27;20206;-73
2023/06/18 12:31:20;;;;;;;4.35;3.95;;;39.00;29.10;;;;;;5111597;27;20763;-71
2023/06/18 12:33:46;;;;;;;3.28;3.08;;;39.50;28.60;;;;;;5119236;27;20262;-72
2023/06/18 12:36:13;;;;;;;4.38;4.07;;;39.70;29.20;;;;;;5115452;27;20221;-72
2023/06/18 12:38:40;;;;;;;3.92;3.63;;;39.10;27.60;;;;;;5118414;27;20232;-72
2023/06/18 12:41:08;;;;;;;3.47;3.20;;;38.20;28.90;;;;;;5122074;27;20229;-71
2023/06/18 12:43:41;;;;;;;5.13;3.28;;;38.00;28.10;;;;;;5108573;27;20188;-72
2023/06/18 12:46:08;;;;;;;3.90;3.50;;;38.50;30.00;;;;;;5119384;27;20651;-72
2023/06/18 12:48:39;;;;;;;4.97;3.03;;;39.70;29.40;;;;;;5120439;27;20205;-71
2023/06/18 12:51:05;;;;;;;3.60;3.35;;;39.80;29.10;;;;;;5113005;27;20221;-72
2023/06/18 12:53:33;;;;;;;3.40;3.20;;;40.50;27.80;;;;;;5120651;27;20951;-73